Flugplatz Lauterbach

Für EDFT sind keine METAR/TAF Berichte vorhanden.
Es werden die Flugwettermeldungen vom Flugplatz Fritzlar Airport in 48 km Entfernung angezeigt.

Bericht für ETHF

vom 23.08. um 13:20 UTC

Wind 5 kt aus 160°

Sichtweite 10 km oder mehr

Temperatur 27.0°C

Taupunkt 8.0°C

Luftfeuchtigkeit 30%

Luftdruck 1024 hPa

ETHF 231320Z 16005KT 9999 27/08 Q1024 BLU+

Prognose für ETHF

vom 23.08. um 00:00 UTC

Zwischen 00:00 UTC und 00:00 UTC

variable Windrichtung mit 3 kt

Sichtweite 10 km oder mehr

keine signifikanten Wettererscheinungen

gering bewölkt in 35000 ft

TAF AMD ETHF 231022Z 2308/2317 VRB03KT 9999 NSW FEW350 CANCEL 1120
Impressum